sensor_id;sensor_type;location;lat;lon;timestamp;P1;durP1;ratioP1;P2;durP2;ratioP2
14066;SDS011;7108;42.684;23.350;2023-02-01T00:02:01;168.73;;;70.47;;
14066;SDS011;7108;42.684;23.350;2023-02-01T00:04:27;193.85;;;72.43;;
14066;SDS011;7108;42.684;23.350;2023-02-01T00:06:53;200.23;;;73.73;;
14066;SDS011;7108;42.684;23.350;2023-02-01T00:09:19;207.67;;;74.77;;
14066;SDS011;7108;42.684;23.350;2023-02-01T00:11:44;193.63;;;72.43;;
14066;SDS011;7108;42.684;23.350;2023-02-01T00:14:10;198.77;;;74.53;;
14066;SDS011;7108;42.684;23.350;2023-02-01T00:16:36;173.67;;;71.50;;
14066;SDS011;7108;42.684;23.350;2023-02-01T00:19:02;175.27;;;72.40;;
14066;SDS011;7108;42.684;23.350;2023-02-01T00:21:30;183.13;;;72.68;;
14066;SDS011;7108;42.684;23.350;2023-02-01T00:23:56;172.52;;;70.05;;
14066;SDS011;7108;42.684;23.350;2023-02-01T00:26:32;208.67;;;72.90;;
14066;SDS011;7108;42.684;23.350;2023-02-01T00:29:00;169.38;;;70.43;;
14066;SDS011;7108;42.684;23.350;2023-02-01T00:31:26;182.60;;;70.03;;
14066;SDS011;7108;42.684;23.350;2023-02-01T00:33:52;196.03;;;73.20;;
14066;SDS011;7108;42.684;23.350;2023-02-01T00:36:17;204.93;;;74.13;;
14066;SDS011;7108;42.684;23.350;2023-02-01T00:38:43;187.03;;;70.87;;
14066;SDS011;7108;42.684;23.350;2023-02-01T00:41:18;181.13;;;70.63;;
14066;SDS011;7108;42.684;23.350;2023-02-01T00:43:45;201.35;;;73.15;;
14066;SDS011;7108;42.684;23.350;2023-02-01T00:46:12;195.60;;;73.32;;
14066;SDS011;7108;42.684;23.350;2023-02-01T00:48:39;199.73;;;74.10;;
14066;SDS011;7108;42.684;23.350;2023-02-01T00:51:06;184.17;;;72.90;;
14066;SDS011;7108;42.684;23.350;2023-02-01T00:53:43;195.02;;;72.53;;
14066;SDS011;7108;42.684;23.350;2023-02-01T00:56:10;200.07;;;72.35;;
14066;SDS011;7108;42.684;23.350;2023-02-01T00:58:36;199.38;;;75.35;;
14066;SDS011;7108;42.684;23.350;2023-02-01T01:01:16;164.13;;;71.00;;
14066;SDS011;7108;42.684;23.350;2023-02-01T01:03:44;191.50;;;73.15;;
14066;SDS011;7108;42.684;23.350;2023-02-01T01:06:12;188.85;;;72.20;;
14066;SDS011;7108;42.684;23.350;2023-02-01T01:08:39;186.95;;;74.57;;
14066;SDS011;7108;42.684;23.350;2023-02-01T01:11:16;176.80;;;72.30;;
14066;SDS011;7108;42.684;23.350;2023-02-01T01:13:46;198.93;;;72.57;;
14066;SDS011;7108;42.684;23.350;2023-02-01T01:16:13;199.93;;;76.03;;
14066;SDS011;7108;42.684;23.350;2023-02-01T01:18:38;192.20;;;73.60;;
14066;SDS011;7108;42.684;23.350;2023-02-01T01:21:04;179.17;;;72.67;;
14066;SDS011;7108;42.684;23.350;2023-02-01T01:23:30;188.18;;;72.15;;
14066;SDS011;7108;42.684;23.350;2023-02-01T01:25:56;179.83;;;73.60;;
14066;SDS011;7108;42.684;23.350;2023-02-01T01:28:21;215.63;;;74.23;;
14066;SDS011;7108;42.684;23.350;2023-02-01T01:30:47;206.77;;;76.77;;
14066;SDS011;7108;42.684;23.350;2023-02-01T01:33:12;187.70;;;72.03;;
14066;SDS011;7108;42.684;23.350;2023-02-01T01:35:38;165.33;;;70.60;;
14066;SDS011;7108;42.684;23.350;2023-02-01T01:38:03;184.90;;;72.43;;
14066;SDS011;7108;42.684;23.350;2023-02-01T01:40:29;172.53;;;71.20;;
14066;SDS011;7108;42.684;23.350;2023-02-01T01:42:55;189.40;;;72.43;;
14066;SDS011;7108;42.684;23.350;2023-02-01T01:45:28;198.40;;;73.30;;
14066;SDS011;7108;42.684;23.350;2023-02-01T01:47:59;171.57;;;71.25;;
14066;SDS011;7108;42.684;23.350;2023-02-01T01:50:32;181.18;;;70.88;;
14066;SDS011;7108;42.684;23.350;2023-02-01T01:53:02;170.48;;;70.63;;
14066;SDS011;7108;42.684;23.350;2023-02-01T01:55:31;189.25;;;71.75;;
14066;SDS011;7108;42.684;23.350;2023-02-01T01:58:02;164.35;;;69.32;;
14066;SDS011;7108;42.684;23.350;2023-02-01T02:00:31;180.43;;;70.13;;
14066;SDS011;7108;42.684;23.350;2023-02-01T02:02:58;168.70;;;70.40;;
14066;SDS011;7108;42.684;23.350;2023-02-01T02:05:28;182.30;;;72.93;;
14066;SDS011;7108;42.684;23.350;2023-02-01T02:07:56;192.75;;;73.82;;
14066;SDS011;7108;42.684;23.350;2023-02-01T02:10:24;213.63;;;74.05;;
14066;SDS011;7108;42.684;23.350;2023-02-01T02:13:09;187.70;;;72.07;;
14066;SDS011;7108;42.684;23.350;2023-02-01T02:15:36;186.97;;;71.40;;
14066;SDS011;7108;42.684;23.350;2023-02-01T02:18:10;176.43;;;70.88;;
14066;SDS011;7108;42.684;23.350;2023-02-01T02:20:52;192.07;;;74.28;;
14066;SDS011;7108;42.684;23.350;2023-02-01T02:29:21;172.10;;;71.70;;
14066;SDS011;7108;42.684;23.350;2023-02-01T02:35:06;168.00;;;69.22;;
14066;SDS011;7108;42.684;23.350;2023-02-01T02:40:55;178.48;;;72.60;;
14066;SDS011;7108;42.684;23.350;2023-02-01T02:43:34;182.55;;;71.28;;
14066;SDS011;7108;42.684;23.350;2023-02-01T02:46:35;180.70;;;71.40;;
14066;SDS011;7108;42.684;23.350;2023-02-01T02:49:24;186.40;;;73.45;;
14066;SDS011;7108;42.684;23.350;2023-02-01T02:51:56;163.25;;;70.53;;
14066;SDS011;7108;42.684;23.350;2023-02-01T02:54:46;163.98;;;69.13;;
14066;SDS011;7108;42.684;23.350;2023-02-01T03:00:09;164.05;;;71.60;;
14066;SDS011;7108;42.684;23.350;2023-02-01T03:02:57;160.20;;;71.10;;
14066;SDS011;7108;42.684;23.350;2023-02-01T03:05:43;196.75;;;73.90;;
14066;SDS011;7108;42.684;23.350;2023-02-01T03:08:14;192.55;;;73.65;;
14066;SDS011;7108;42.684;23.350;2023-02-01T03:10:47;167.73;;;71.25;;
14066;SDS011;7108;42.684;23.350;2023-02-01T03:16:06;167.98;;;68.55;;
14066;SDS011;7108;42.684;23.350;2023-02-01T03:18:51;176.00;;;70.78;;
14066;SDS011;7108;42.684;23.350;2023-02-01T03:21:24;196.25;;;72.18;;
14066;SDS011;7108;42.684;23.350;2023-02-01T03:23:55;187.68;;;72.60;;
14066;SDS011;7108;42.684;23.350;2023-02-01T03:26:25;185.00;;;73.28;;
14066;SDS011;7108;42.684;23.350;2023-02-01T03:28:56;196.88;;;73.05;;
14066;SDS011;7108;42.684;23.350;2023-02-01T03:31:27;174.25;;;70.28;;
14066;SDS011;7108;42.684;23.350;2023-02-01T03:33:53;194.13;;;71.97;;
14066;SDS011;7108;42.684;23.350;2023-02-01T03:41:38;172.15;;;69.20;;
14066;SDS011;7108;42.684;23.350;2023-02-01T03:52:11;195.05;;;74.00;;
14066;SDS011;7108;42.684;23.350;2023-02-01T03:54:41;182.77;;;70.95;;
14066;SDS011;7108;42.684;23.350;2023-02-01T03:57:10;165.90;;;68.95;;
14066;SDS011;7108;42.684;23.350;2023-02-01T03:59:39;181.82;;;71.28;;
14066;SDS011;7108;42.684;23.350;2023-02-01T04:02:07;177.65;;;70.30;;
14066;SDS011;7108;42.684;23.350;2023-02-01T04:04:33;177.17;;;69.53;;
14066;SDS011;7108;42.684;23.350;2023-02-01T04:06:59;164.48;;;69.38;;
14066;SDS011;7108;42.684;23.350;2023-02-01T04:09:25;184.67;;;72.73;;
14066;SDS011;7108;42.684;23.350;2023-02-01T04:11:50;198.63;;;73.03;;
14066;SDS011;7108;42.684;23.350;2023-02-01T04:14:16;194.73;;;73.33;;
14066;SDS011;7108;42.684;23.350;2023-02-01T04:16:41;184.30;;;70.27;;
14066;SDS011;7108;42.684;23.350;2023-02-01T04:19:07;173.77;;;70.50;;
14066;SDS011;7108;42.684;23.350;2023-02-01T04:21:32;177.70;;;71.53;;
14066;SDS011;7108;42.684;23.350;2023-02-01T04:23:58;166.57;;;69.77;;
14066;SDS011;7108;42.684;23.350;2023-02-01T04:26:23;198.73;;;72.83;;
14066;SDS011;7108;42.684;23.350;2023-02-01T04:28:49;188.77;;;72.03;;
14066;SDS011;7108;42.684;23.350;2023-02-01T04:31:16;182.18;;;72.95;;
14066;SDS011;7108;42.684;23.350;2023-02-01T04:33:42;194.80;;;73.07;;
14066;SDS011;7108;42.684;23.350;2023-02-01T04:36:08;170.30;;;69.38;;
14066;SDS011;7108;42.684;23.350;2023-02-01T04:38:34;179.13;;;72.70;;
14066;SDS011;7108;42.684;23.350;2023-02-01T04:40:59;159.87;;;68.17;;
14066;SDS011;7108;42.684;23.350;2023-02-01T04:43:25;189.10;;;71.43;;
14066;SDS011;7108;42.684;23.350;2023-02-01T04:45:51;211.93;;;72.80;;
14066;SDS011;7108;42.684;23.350;2023-02-01T04:48:17;192.13;;;70.87;;
14066;SDS011;7108;42.684;23.350;2023-02-01T04:50:44;187.93;;;70.40;;
14066;SDS011;7108;42.684;23.350;2023-02-01T04:53:13;193.15;;;71.47;;
14066;SDS011;7108;42.684;23.350;2023-02-01T04:55:39;193.55;;;73.13;;
14066;SDS011;7108;42.684;23.350;2023-02-01T04:58:05;175.60;;;70.67;;
14066;SDS011;7108;42.684;23.350;2023-02-01T05:00:30;168.93;;;69.10;;
14066;SDS011;7108;42.684;23.350;2023-02-01T05:02:55;178.90;;;70.40;;
14066;SDS011;7108;42.684;23.350;2023-02-01T05:05:21;197.57;;;78.27;;
14066;SDS011;7108;42.684;23.350;2023-02-01T05:07:46;216.30;;;88.80;;
14066;SDS011;7108;42.684;23.350;2023-02-01T05:10:12;204.87;;;80.13;;
14066;SDS011;7108;42.684;23.350;2023-02-01T05:12:37;195.03;;;71.77;;
14066;SDS011;7108;42.684;23.350;2023-02-01T05:15:32;186.95;;;70.65;;
14066;SDS011;7108;42.684;23.350;2023-02-01T05:17:58;170.20;;;68.97;;
14066;SDS011;7108;42.684;23.350;2023-02-01T05:20:24;206.23;;;73.77;;
14066;SDS011;7108;42.684;23.350;2023-02-01T05:22:50;196.15;;;73.22;;
14066;SDS011;7108;42.684;23.350;2023-02-01T05:25:15;204.80;;;72.87;;
14066;SDS011;7108;42.684;23.350;2023-02-01T05:27:41;196.37;;;93.47;;
14066;SDS011;7108;42.684;23.350;2023-02-01T05:30:07;171.70;;;70.28;;
14066;SDS011;7108;42.684;23.350;2023-02-01T05:32:33;181.20;;;68.95;;
14066;SDS011;7108;42.684;23.350;2023-02-01T05:34:59;180.53;;;71.37;;
14066;SDS011;7108;42.684;23.350;2023-02-01T05:37:25;209.17;;;74.97;;
14066;SDS011;7108;42.684;23.350;2023-02-01T05:39:50;218.27;;;76.90;;
14066;SDS011;7108;42.684;23.350;2023-02-01T05:42:16;221.20;;;76.20;;
14066;SDS011;7108;42.684;23.350;2023-02-01T05:44:42;194.13;;;73.00;;
14066;SDS011;7108;42.684;23.350;2023-02-01T05:47:07;176.80;;;72.47;;
14066;SDS011;7108;42.684;23.350;2023-02-01T05:49:33;190.10;;;70.77;;
14066;SDS011;7108;42.684;23.350;2023-02-01T05:51:58;169.40;;;70.53;;
14066;SDS011;7108;42.684;23.350;2023-02-01T05:54:24;221.57;;;75.60;;
14066;SDS011;7108;42.684;23.350;2023-02-01T05:56:49;200.23;;;73.30;;
14066;SDS011;7108;42.684;23.350;2023-02-01T05:59:15;206.87;;;74.47;;
14066;SDS011;7108;42.684;23.350;2023-02-01T06:01:40;211.23;;;75.83;;
14066;SDS011;7108;42.684;23.350;2023-02-01T06:04:09;186.30;;;73.17;;
14066;SDS011;7108;42.684;23.350;2023-02-01T06:06:34;211.27;;;74.85;;
14066;SDS011;7108;42.684;23.350;2023-02-01T06:09:01;185.95;;;73.57;;
14066;SDS011;7108;42.684;23.350;2023-02-01T06:11:27;202.77;;;73.80;;
14066;SDS011;7108;42.684;23.350;2023-02-01T06:13:53;206.67;;;73.80;;
14066;SDS011;7108;42.684;23.350;2023-02-01T06:16:20;200.18;;;75.22;;
14066;SDS011;7108;42.684;23.350;2023-02-01T06:18:46;192.60;;;74.35;;
14066;SDS011;7108;42.684;23.350;2023-02-01T06:21:11;215.83;;;77.87;;
14066;SDS011;7108;42.684;23.350;2023-02-01T06:23:38;210.93;;;75.00;;
14066;SDS011;7108;42.684;23.350;2023-02-01T06:26:07;183.05;;;71.47;;
14066;SDS011;7108;42.684;23.350;2023-02-01T06:28:33;202.25;;;72.30;;
14066;SDS011;7108;42.684;23.350;2023-02-01T06:31:08;182.52;;;73.00;;
14066;SDS011;7108;42.684;23.350;2023-02-01T06:33:34;185.55;;;70.43;;
14066;SDS011;7108;42.684;23.350;2023-02-01T06:36:01;196.57;;;80.88;;
14066;SDS011;7108;42.684;23.350;2023-02-01T06:38:28;195.77;;;75.20;;
14066;SDS011;7108;42.684;23.350;2023-02-01T06:40:55;195.33;;;72.87;;
14066;SDS011;7108;42.684;23.350;2023-02-01T06:43:21;190.55;;;71.82;;
14066;SDS011;7108;42.684;23.350;2023-02-01T06:45:48;206.25;;;75.03;;
14066;SDS011;7108;42.684;23.350;2023-02-01T06:48:13;220.93;;;75.37;;
14066;SDS011;7108;42.684;23.350;2023-02-01T06:50:39;199.83;;;72.87;;
14066;SDS011;7108;42.684;23.350;2023-02-01T06:53:04;185.90;;;71.37;;
14066;SDS011;7108;42.684;23.350;2023-02-01T06:55:29;265.13;;;81.93;;
14066;SDS011;7108;42.684;23.350;2023-02-01T06:57:55;226.17;;;78.20;;
14066;SDS011;7108;42.684;23.350;2023-02-01T07:00:23;260.50;;;79.23;;
14066;SDS011;7108;42.684;23.350;2023-02-01T07:02:49;248.52;;;80.90;;
14066;SDS011;7108;42.684;23.350;2023-02-01T07:05:15;261.45;;;79.50;;
14066;SDS011;7108;42.684;23.350;2023-02-01T07:07:41;267.50;;;80.67;;
14066;SDS011;7108;42.684;23.350;2023-02-01T07:10:07;244.20;;;79.37;;
14066;SDS011;7108;42.684;23.350;2023-02-01T07:12:32;275.90;;;83.50;;
14066;SDS011;7108;42.684;23.350;2023-02-01T07:14:58;225.10;;;76.60;;
14066;SDS011;7108;42.684;23.350;2023-02-01T07:17:23;243.33;;;78.47;;
14066;SDS011;7108;42.684;23.350;2023-02-01T07:19:49;211.37;;;74.97;;
14066;SDS011;7108;42.684;23.350;2023-02-01T07:22:17;245.63;;;80.43;;
14066;SDS011;7108;42.684;23.350;2023-02-01T07:24:43;252.93;;;78.22;;
14066;SDS011;7108;42.684;23.350;2023-02-01T07:27:08;243.03;;;79.67;;
14066;SDS011;7108;42.684;23.350;2023-02-01T07:29:34;227.83;;;75.53;;
14066;SDS011;7108;42.684;23.350;2023-02-01T07:31:59;243.60;;;77.33;;
14066;SDS011;7108;42.684;23.350;2023-02-01T07:34:26;251.00;;;79.00;;
14066;SDS011;7108;42.684;23.350;2023-02-01T07:36:51;251.50;;;79.63;;
14066;SDS011;7108;42.684;23.350;2023-02-01T07:39:17;271.93;;;82.43;;
14066;SDS011;7108;42.684;23.350;2023-02-01T07:41:42;232.03;;;78.93;;
14066;SDS011;7108;42.684;23.350;2023-02-01T07:44:08;266.07;;;82.50;;
14066;SDS011;7108;42.684;23.350;2023-02-01T07:46:34;269.25;;;79.75;;
14066;SDS011;7108;42.684;23.350;2023-02-01T07:49:01;241.45;;;78.78;;
14066;SDS011;7108;42.684;23.350;2023-02-01T07:51:26;255.90;;;78.67;;
14066;SDS011;7108;42.684;23.350;2023-02-01T07:53:52;255.57;;;80.80;;
14066;SDS011;7108;42.684;23.350;2023-02-01T07:56:18;243.13;;;81.13;;
14066;SDS011;7108;42.684;23.350;2023-02-01T07:58:48;256.27;;;82.93;;
14066;SDS011;7108;42.684;23.350;2023-02-01T08:01:18;243.10;;;80.22;;
14066;SDS011;7108;42.684;23.350;2023-02-01T08:03:56;230.05;;;80.22;;
14066;SDS011;7108;42.684;23.350;2023-02-01T08:06:26;234.15;;;82.05;;
14066;SDS011;7108;42.684;23.350;2023-02-01T08:08:53;275.42;;;88.40;;
14066;SDS011;7108;42.684;23.350;2023-02-01T08:11:19;270.30;;;83.70;;
14066;SDS011;7108;42.684;23.350;2023-02-01T08:13:46;262.13;;;82.25;;
14066;SDS011;7108;42.684;23.350;2023-02-01T08:16:12;269.43;;;84.00;;
14066;SDS011;7108;42.684;23.350;2023-02-01T08:18:39;275.45;;;82.80;;
14066;SDS011;7108;42.684;23.350;2023-02-01T08:21:09;250.40;;;80.50;;
14066;SDS011;7108;42.684;23.350;2023-02-01T08:23:36;272.77;;;81.68;;
14066;SDS011;7108;42.684;23.350;2023-02-01T08:26:08;246.52;;;81.95;;
14066;SDS011;7108;42.684;23.350;2023-02-01T08:28:40;269.40;;;84.85;;
14066;SDS011;7108;42.684;23.350;2023-02-01T08:31:11;263.80;;;84.10;;
14066;SDS011;7108;42.684;23.350;2023-02-01T08:33:39;269.08;;;81.88;;
14066;SDS011;7108;42.684;23.350;2023-02-01T08:36:06;245.18;;;78.18;;
14066;SDS011;7108;42.684;23.350;2023-02-01T08:38:34;258.50;;;79.70;;
14066;SDS011;7108;42.684;23.350;2023-02-01T08:41:07;222.70;;;76.93;;
14066;SDS011;7108;42.684;23.350;2023-02-01T08:43:34;202.05;;;73.45;;
14066;SDS011;7108;42.684;23.350;2023-02-01T08:46:00;180.13;;;70.00;;
14066;SDS011;7108;42.684;23.350;2023-02-01T08:48:26;215.40;;;76.17;;
14066;SDS011;7108;42.684;23.350;2023-02-01T08:50:51;228.87;;;78.23;;
14066;SDS011;7108;42.684;23.350;2023-02-01T08:53:17;213.37;;;75.50;;
14066;SDS011;7108;42.684;23.350;2023-02-01T08:55:42;220.80;;;77.63;;
14066;SDS011;7108;42.684;23.350;2023-02-01T08:58:15;205.60;;;73.10;;
14066;SDS011;7108;42.684;23.350;2023-02-01T09:00:42;222.55;;;78.63;;
14066;SDS011;7108;42.684;23.350;2023-02-01T09:03:10;209.48;;;72.50;;
14066;SDS011;7108;42.684;23.350;2023-02-01T09:05:37;216.57;;;74.18;;
14066;SDS011;7108;42.684;23.350;2023-02-01T09:08:03;182.32;;;72.88;;
14066;SDS011;7108;42.684;23.350;2023-02-01T09:10:29;208.83;;;73.03;;
14066;SDS011;7108;42.684;23.350;2023-02-01T09:12:54;225.97;;;75.97;;
14066;SDS011;7108;42.684;23.350;2023-02-01T09:15:20;235.30;;;78.63;;
14066;SDS011;7108;42.684;23.350;2023-02-01T09:17:45;223.90;;;75.67;;
14066;SDS011;7108;42.684;23.350;2023-02-01T09:20:11;226.57;;;79.57;;
14066;SDS011;7108;42.684;23.350;2023-02-01T09:22:36;216.47;;;74.43;;
14066;SDS011;7108;42.684;23.350;2023-02-01T09:25:05;196.73;;;75.20;;
14066;SDS011;7108;42.684;23.350;2023-02-01T09:27:31;180.50;;;70.72;;
14066;SDS011;7108;42.684;23.350;2023-02-01T09:29:57;187.60;;;72.57;;
14066;SDS011;7108;42.684;23.350;2023-02-01T09:32:23;224.13;;;77.73;;
14066;SDS011;7108;42.684;23.350;2023-02-01T09:34:49;220.70;;;76.43;;
14066;SDS011;7108;42.684;23.350;2023-02-01T09:37:15;217.65;;;74.18;;
14066;SDS011;7108;42.684;23.350;2023-02-01T09:39:41;231.47;;;74.77;;
14066;SDS011;7108;42.684;23.350;2023-02-01T09:45:24;222.77;;;78.20;;
14066;SDS011;7108;42.684;23.350;2023-02-01T09:48:00;199.65;;;74.10;;
14066;SDS011;7108;42.684;23.350;2023-02-01T09:50:36;206.02;;;74.18;;
14066;SDS011;7108;42.684;23.350;2023-02-01T09:53:06;198.30;;;73.97;;
14066;SDS011;7108;42.684;23.350;2023-02-01T09:55:43;244.90;;;79.63;;
14066;SDS011;7108;42.684;23.350;2023-02-01T09:58:13;223.25;;;75.43;;
14066;SDS011;7108;42.684;23.350;2023-02-01T10:00:49;215.30;;;74.38;;
14066;SDS011;7108;42.684;23.350;2023-02-01T10:03:22;223.20;;;75.75;;
14066;SDS011;7108;42.684;23.350;2023-02-01T10:11:31;223.30;;;77.60;;
14066;SDS011;7108;42.684;23.350;2023-02-01T10:17:03;204.70;;;75.15;;
14066;SDS011;7108;42.684;23.350;2023-02-01T10:20:27;242.13;;;76.07;;
14066;SDS011;7108;42.684;23.350;2023-02-01T10:28:42;277.20;;;96.55;;
14066;SDS011;7108;42.684;23.350;2023-02-01T10:31:09;251.38;;;92.22;;
14066;SDS011;7108;42.684;23.350;2023-02-01T10:33:37;236.67;;;78.47;;
14066;SDS011;7108;42.684;23.350;2023-02-01T10:36:19;223.02;;;76.75;;
14066;SDS011;7108;42.684;23.350;2023-02-01T10:38:48;216.98;;;81.50;;
14066;SDS011;7108;42.684;23.350;2023-02-01T10:43:45;245.77;;;84.30;;
14066;SDS011;7108;42.684;23.350;2023-02-01T10:46:19;211.93;;;79.45;;
14066;SDS011;7108;42.684;23.350;2023-02-01T10:48:45;246.02;;;83.72;;
14066;SDS011;7108;42.684;23.350;2023-02-01T10:51:14;237.43;;;80.30;;
14066;SDS011;7108;42.684;23.350;2023-02-01T10:53:48;241.15;;;86.60;;
14066;SDS011;7108;42.684;23.350;2023-02-01T10:56:26;222.23;;;79.20;;
14066;SDS011;7108;42.684;23.350;2023-02-01T10:58:59;209.90;;;78.47;;
14066;SDS011;7108;42.684;23.350;2023-02-01T11:01:41;239.52;;;81.22;;
14066;SDS011;7108;42.684;23.350;2023-02-01T11:04:11;217.40;;;78.78;;
14066;SDS011;7108;42.684;23.350;2023-02-01T11:06:41;221.93;;;77.03;;
14066;SDS011;7108;42.684;23.350;2023-02-01T11:17:00;203.10;;;72.78;;
14066;SDS011;7108;42.684;23.350;2023-02-01T11:19:46;241.05;;;77.60;;
14066;SDS011;7108;42.684;23.350;2023-02-01T11:22:20;214.88;;;75.18;;
14066;SDS011;7108;42.684;23.350;2023-02-01T11:24:46;222.70;;;75.13;;
14066;SDS011;7108;42.684;23.350;2023-02-01T11:27:14;217.70;;;74.33;;
14066;SDS011;7108;42.684;23.350;2023-02-01T11:29:43;243.48;;;76.00;;
14066;SDS011;7108;42.684;23.350;2023-02-01T11:32:13;242.45;;;77.20;;
14066;SDS011;7108;42.684;23.350;2023-02-01T11:34:47;235.32;;;75.03;;
14066;SDS011;7108;42.684;23.350;2023-02-01T11:39:58;200.32;;;73.38;;
14066;SDS011;7108;42.684;23.350;2023-02-01T11:42:26;195.55;;;73.43;;
14066;SDS011;7108;42.684;23.350;2023-02-01T11:45:09;222.32;;;75.15;;
14066;SDS011;7108;42.684;23.350;2023-02-01T11:47:41;241.63;;;77.13;;
14066;SDS011;7108;42.684;23.350;2023-02-01T11:50:17;207.07;;;75.13;;
14066;SDS011;7108;42.684;23.350;2023-02-01T11:55:29;220.52;;;76.05;;
14066;SDS011;7108;42.684;23.350;2023-02-01T11:58:27;199.73;;;75.53;;
14066;SDS011;7108;42.684;23.350;2023-02-01T12:14:41;212.68;;;76.55;;
14066;SDS011;7108;42.684;23.350;2023-02-01T12:23:37;227.52;;;78.15;;
14066;SDS011;7108;42.684;23.350;2023-02-01T12:36:58;234.25;;;76.13;;
14066;SDS011;7108;42.684;23.350;2023-02-01T12:39:31;218.73;;;74.95;;
14066;SDS011;7108;42.684;23.350;2023-02-01T12:42:02;195.77;;;74.07;;
14066;SDS011;7108;42.684;23.350;2023-02-01T12:44:39;208.75;;;73.50;;
14066;SDS011;7108;42.684;23.350;2023-02-01T12:47:14;197.68;;;71.35;;
14066;SDS011;7108;42.684;23.350;2023-02-01T12:49:49;234.75;;;76.55;;
14066;SDS011;7108;42.684;23.350;2023-02-01T12:52:23;211.35;;;73.60;;
14066;SDS011;7108;42.684;23.350;2023-02-01T12:57:55;228.13;;;74.10;;
14066;SDS011;7108;42.684;23.350;2023-02-01T13:00:30;191.50;;;73.13;;
14066;SDS011;7108;42.684;23.350;2023-02-01T13:03:02;209.02;;;73.82;;
14066;SDS011;7108;42.684;23.350;2023-02-01T13:06:12;231.30;;;76.97;;
14066;SDS011;7108;42.684;23.350;2023-02-01T13:11:39;219.02;;;74.25;;
14066;SDS011;7108;42.684;23.350;2023-02-01T13:14:11;199.57;;;74.28;;
14066;SDS011;7108;42.684;23.350;2023-02-01T13:16:44;216.32;;;76.40;;
14066;SDS011;7108;42.684;23.350;2023-02-01T13:19:15;228.20;;;74.88;;
14066;SDS011;7108;42.684;23.350;2023-02-01T13:21:55;244.85;;;78.20;;
14066;SDS011;7108;42.684;23.350;2023-02-01T13:27:21;220.35;;;74.35;;
14066;SDS011;7108;42.684;23.350;2023-02-01T13:29:55;235.30;;;75.93;;
14066;SDS011;7108;42.684;23.350;2023-02-01T13:32:40;198.07;;;73.60;;
14066;SDS011;7108;42.684;23.350;2023-02-01T13:37:56;225.05;;;76.40;;
14066;SDS011;7108;42.684;23.350;2023-02-01T13:43:26;195.55;;;72.10;;
14066;SDS011;7108;42.684;23.350;2023-02-01T13:45:56;211.30;;;72.88;;
14066;SDS011;7108;42.684;23.350;2023-02-01T13:51:14;222.32;;;80.05;;
14066;SDS011;7108;42.684;23.350;2023-02-01T13:53:45;230.10;;;75.78;;
14066;SDS011;7108;42.684;23.350;2023-02-01T13:58:41;231.55;;;75.75;;
14066;SDS011;7108;42.684;23.350;2023-02-01T14:06:17;215.65;;;74.10;;
14066;SDS011;7108;42.684;23.350;2023-02-01T14:19:28;215.15;;;74.78;;
14066;SDS011;7108;42.684;23.350;2023-02-01T14:22:00;190.48;;;72.60;;
14066;SDS011;7108;42.684;23.350;2023-02-01T14:24:56;237.35;;;77.13;;
14066;SDS011;7108;42.684;23.350;2023-02-01T14:27:23;227.35;;;76.35;;
14066;SDS011;7108;42.684;23.350;2023-02-01T14:29:53;222.52;;;76.85;;
14066;SDS011;7108;42.684;23.350;2023-02-01T14:32:36;186.30;;;69.90;;
14066;SDS011;7108;42.684;23.350;2023-02-01T14:35:06;188.18;;;71.40;;
14066;SDS011;7108;42.684;23.350;2023-02-01T14:37:38;226.82;;;76.65;;
14066;SDS011;7108;42.684;23.350;2023-02-01T14:55:42;232.50;;;75.60;;
14066;SDS011;7108;42.684;23.350;2023-02-01T15:01:46;191.35;;;71.38;;
14066;SDS011;7108;42.684;23.350;2023-02-01T15:04:00;218.15;;;75.10;;
14066;SDS011;7108;42.684;23.350;2023-02-01T15:09:10;199.45;;;71.30;;
14066;SDS011;7108;42.684;23.350;2023-02-01T15:11:55;302.80;;;86.72;;
14066;SDS011;7108;42.684;23.350;2023-02-01T15:14:38;267.42;;;80.47;;
14066;SDS011;7108;42.684;23.350;2023-02-01T15:17:25;275.33;;;84.35;;
14066;SDS011;7108;42.684;23.350;2023-02-01T15:19:59;260.35;;;83.13;;
14066;SDS011;7108;42.684;23.350;2023-02-01T15:22:27;261.40;;;79.75;;
14066;SDS011;7108;42.684;23.350;2023-02-01T15:24:57;285.73;;;82.32;;
14066;SDS011;7108;42.684;23.350;2023-02-01T15:27:24;281.90;;;83.53;;
14066;SDS011;7108;42.684;23.350;2023-02-01T15:29:50;265.85;;;80.20;;
14066;SDS011;7108;42.684;23.350;2023-02-01T15:32:33;275.87;;;81.67;;
14066;SDS011;7108;42.684;23.350;2023-02-01T15:35:01;212.40;;;78.03;;
14066;SDS011;7108;42.684;23.350;2023-02-01T15:37:27;219.40;;;77.22;;
14066;SDS011;7108;42.684;23.350;2023-02-01T15:42:30;201.57;;;79.35;;
14066;SDS011;7108;42.684;23.350;2023-02-01T15:44:56;199.55;;;75.03;;
14066;SDS011;7108;42.684;23.350;2023-02-01T15:47:26;212.77;;;74.80;;
14066;SDS011;7108;42.684;23.350;2023-02-01T15:49:56;196.30;;;75.50;;
14066;SDS011;7108;42.684;23.350;2023-02-01T15:52:37;226.45;;;77.53;;
14066;SDS011;7108;42.684;23.350;2023-02-01T15:55:20;208.00;;;75.47;;
14066;SDS011;7108;42.684;23.350;2023-02-01T15:57:49;221.77;;;76.88;;
14066;SDS011;7108;42.684;23.350;2023-02-01T16:05:56;275.38;;;83.47;;
14066;SDS011;7108;42.684;23.350;2023-02-01T16:08:24;267.98;;;82.32;;
14066;SDS011;7108;42.684;23.350;2023-02-01T16:10:52;291.98;;;87.43;;
14066;SDS011;7108;42.684;23.350;2023-02-01T16:13:20;267.25;;;84.47;;
14066;SDS011;7108;42.684;23.350;2023-02-01T16:15:46;254.95;;;79.35;;
14066;SDS011;7108;42.684;23.350;2023-02-01T16:18:13;276.00;;;84.57;;
14066;SDS011;7108;42.684;23.350;2023-02-01T16:20:40;271.70;;;79.03;;
14066;SDS011;7108;42.684;23.350;2023-02-01T16:23:06;250.93;;;79.97;;
14066;SDS011;7108;42.684;23.350;2023-02-01T16:25:34;261.67;;;83.50;;
14066;SDS011;7108;42.684;23.350;2023-02-01T16:28:00;266.33;;;82.75;;
14066;SDS011;7108;42.684;23.350;2023-02-01T16:30:26;243.63;;;81.17;;
14066;SDS011;7108;42.684;23.350;2023-02-01T16:32:55;289.70;;;85.50;;
14066;SDS011;7108;42.684;23.350;2023-02-01T16:35:28;259.33;;;81.70;;
14066;SDS011;7108;42.684;23.350;2023-02-01T16:38:09;262.58;;;107.78;;
14066;SDS011;7108;42.684;23.350;2023-02-01T16:40:48;263.05;;;88.40;;
14066;SDS011;7108;42.684;23.350;2023-02-01T16:45:41;305.73;;;91.60;;
14066;SDS011;7108;42.684;23.350;2023-02-01T16:48:16;277.70;;;106.47;;
14066;SDS011;7108;42.684;23.350;2023-02-01T16:50:42;295.70;;;85.80;;
14066;SDS011;7108;42.684;23.350;2023-02-01T16:53:10;285.65;;;85.50;;
14066;SDS011;7108;42.684;23.350;2023-02-01T16:55:39;301.27;;;86.82;;
14066;SDS011;7108;42.684;23.350;2023-02-01T16:58:04;254.73;;;80.93;;
14066;SDS011;7108;42.684;23.350;2023-02-01T17:00:30;232.30;;;81.83;;
14066;SDS011;7108;42.684;23.350;2023-02-01T17:02:58;244.18;;;77.10;;
14066;SDS011;7108;42.684;23.350;2023-02-01T17:05:27;286.43;;;84.70;;
14066;SDS011;7108;42.684;23.350;2023-02-01T17:07:53;285.20;;;83.78;;